Terminal Aerodrome Forecast
Issued by NWS Blacksburg, VA

Home | Current Version | Previous Version | Text Only | Print | Product List | Glossary On
Versions: 1 2 3 4 5 6 7 8 9 10 11 12 13 14 15 16 17 18 19 20 21 22 23 24 25 26 27
000
FTUS41 KRNK 040540
TAFDAN
TAF
KDAN 040540Z 0406/0506 17004KT P6SM SCT080 SCT250
      TEMPO 0408/0412 5SM BR
     FM041400 21007KT P6SM SCT070
     FM041700 23009G17KT P6SM BKN070
     FM042300 21004KT P6SM SCT080 SCT250=

USA.gov is the U.S. government's official web portal to all federal, state and local government web resources and services.